Terminal Aerodrome Forecast
Issued by NWS

Home | Current Version | Previous Version | Text Only | Print | Product List | Glossary Off
Versions: 1 2 3 4 5 6 7 8 9 10 11 12 13 14 15 16

000
FTUS45 KGGW 151700
TAFSDY
TAF
KSDY 151728Z 1518/1618 33011KT P6SM OVC014
     FM160000 VRB05KT P6SM OVC020
     FM161300 VRB03KT 4SM BR FEW025
      AMD LTD TO CLD VIS AND WIND=

USA.gov is the U.S. government's official web portal to all federal, state and local government web resources and services.